avis per tempestes more information blitzortung!


avis per Pluja more information rain snow radar


Visita la nostra xarxa de llocs de meteo:

Template documentation
and downloads

And another site



Thunderstorms From: 20-07-2018 17:00 Until: 21-07-2018 01:59 warning for: Thunderstorms Level: Yellow info button
Rain From: 20-07-2018 17:00 Until: 21-07-2018 01:59 warning for: Rain Level: Yellow info button

Pagina Historial Weather Underground text

Diari Resum Juny 14, 2016 Unitats:  Mètric    Imperial   Tant
« Previous Dia
SegĂźent Dia »
Diari Setmana Mensual Anual Personalitzada
  Maxima: Minima: Media:
Temperatura: -17.8 °C -7.9 °C -4.3 °C
Punt de rosada: -17.8 °C -15.5 °C -13.1 °C
Humitat: Humidity % 21 % 39 %
Wind Speed: 0 km/h 0 km/h 15.1 km/h
RĂ fegues de vent: 0 km/h - -
Vent:- - South
Pression baro: 0 hPa 33890.5 hPa -
Precipitacions: 0 mm    
Historical Graphs
 
 
Dades de taula per Juny 14, 2016
Temps Temperatura Punt de rosada Pression baro Vent Wind Speed RĂ fegues de vent Humitat Rainfall Rate (Hourly)
-17.8 °C -17.8 °C 0 hPa Calm     Humidity % 0 mm
00:00 -6.4 °C -8.8 °C 34164.7 hPa ENE 20.9 km/h 20.9 km/h 76 % 0 mm
00:10 -7.8 °C -10.6 °C 34198.6 hPa NNE 5.1 km/h 5.1 km/h 73 % 0 mm
00:20 -7.9 °C -11 °C 34198.6 hPa NNE 5.1 km/h 5.1 km/h 70 % 0 mm
00:30 -7.8 °C -11.4 °C 34198.6 hPa NNE 5.1 km/h 5.1 km/h 66 % 0 mm
00:40 -7.7 °C -11.7 °C 34198.6 hPa NNE 5.1 km/h 5.1 km/h 63 % 0 mm
00:50 -7.7 °C -11.8 °C 34198.6 hPa NNE 5.1 km/h 5.1 km/h 62 % 0 mm
01:00 -7.7 °C -11.8 °C 34198.6 hPa NNE 5.1 km/h 5.1 km/h 62 % 0 mm
01:10 -7.8 °C -12.2 °C 34198.6 hPa NNE 5.1 km/h 5.1 km/h 60 % 0 mm
01:20 -7.8 °C -11.9 °C 34164.7 hPa NNE 5.1 km/h 5.1 km/h 62 % 0 mm
01:30 -7.9 °C -12.4 °C 34198.6 hPa NNE 5.1 km/h 5.1 km/h 59 % 0 mm
01:40 -7.9 °C -12.3 °C 34198.6 hPa NNE 5.1 km/h 5.1 km/h 60 % 0 mm
01:50 -7.9 °C -12.4 °C 34198.6 hPa NNE 5.1 km/h 5.1 km/h 59 % 0 mm
02:00 -7.7 °C -12.8 °C 34198.6 hPa NNE 5.1 km/h 5.1 km/h 55 % 0 mm
02:10 -7.7 °C -12.7 °C 34198.6 hPa NNE 5.1 km/h 5.1 km/h 56 % 0 mm
02:20 -7.6 °C -12.7 °C 34198.6 hPa NNE 5.1 km/h 5.1 km/h 55 % 0 mm
02:30 -7.4 °C -12.6 °C 34198.6 hPa NNE 5.1 km/h 5.1 km/h 55 % 0 mm
02:40 -7.1 °C -12.3 °C 34198.6 hPa NNE 2.6 km/h 5.1 km/h 54 % 0 mm
02:50 -6.9 °C -12.2 °C 34198.6 hPa ENE 2.6 km/h 5.1 km/h 54 % 0 mm
03:00 -7.1 °C -12.3 °C 34198.6 hPa ESE 2.6 km/h 5.1 km/h 55 % 0 mm
03:10 -7.2 °C -12.6 °C 34198.6 hPa SW 2.6 km/h 10.3 km/h 53 % 0 mm
03:20 -7.3 °C -12.6 °C 34198.6 hPa West 7.7 km/h 10.3 km/h 54 % 0 mm
03:30 -7.4 °C -12.9 °C 34198.6 hPa West 5.1 km/h 10.3 km/h 53 % 0 mm
03:40 -7.4 °C -12.8 °C 34198.6 hPa Calm   5.1 km/h 53 % 0 mm
03:50 -7.2 °C -13 °C 34198.6 hPa SW 5.1 km/h 12.9 km/h 51 % 0 mm
04:00 -6.9 °C -12.8 °C 34164.7 hPa WSW 7.7 km/h 12.9 km/h 50 % 0 mm
04:10 -6.6 °C -12.6 °C 34164.7 hPa West 7.7 km/h 10.3 km/h 50 % 0 mm
04:20 -6.3 °C -12.3 °C 34130.9 hPa WSW 2.6 km/h 15.6 km/h 50 % 0 mm
04:30 -6.2 °C -12.3 °C 34130.9 hPa SW 7.7 km/h 12.9 km/h 49 % 0 mm
04:40 -6 °C -12.6 °C 34130.9 hPa SW 5.1 km/h 10.3 km/h 47 % 0 mm
04:50 -5.8 °C -12.3 °C 34130.9 hPa WSW 7.7 km/h 12.9 km/h 47 % 0 mm
05:00 -5.8 °C -12.7 °C 34130.9 hPa WSW 7.7 km/h 15.6 km/h 45 % 0 mm
05:10 -5.4 °C -12.3 °C 34130.9 hPa SW 5.1 km/h 12.9 km/h 45 % 0 mm
05:20 -5.2 °C -12.3 °C 34130.9 hPa SW 5.1 km/h 12.9 km/h 44 % 0 mm
05:30 -4.8 °C -12.2 °C 34130.9 hPa SW 7.7 km/h 10.3 km/h 43 % 0 mm
05:40 -4.6 °C -12.3 °C 34130.9 hPa WSW 12.9 km/h 12.9 km/h 41 % 0 mm
05:50 -4.5 °C -12.5 °C 34130.9 hPa WSW 12.9 km/h 15.6 km/h 40 % 0 mm
06:00 -4.3 °C -12.3 °C 34130.9 hPa WSW 2.6 km/h 7.7 km/h 40 % 0 mm
06:10 -4.1 °C -12.6 °C 34130.9 hPa WSW 12.9 km/h 12.9 km/h 38 % 0 mm
06:20 -4.1 °C -12.8 °C 34097 hPa SW 7.7 km/h 18.2 km/h 37 % 0 mm
11:20 -4.1 °C -13 °C 34097 hPa West 6 km/h 14.5 km/h 36 % 0 mm
11:25 -4.4 °C -13.5 °C 34097 hPa West 17.9 km/h 17.9 km/h 35 % 0 mm
11:30 -4.4 °C -13.6 °C 34097 hPa WSW 20.9 km/h 20.9 km/h 35 % 0 mm
11:35 -4.2 °C -13.3 °C 34097 hPa SE 15 km/h 15 km/h 35 % 0 mm
11:40 -4.1 °C -13.5 °C 34097 hPa WSW 26.9 km/h 26.9 km/h 34 % 0 mm
11:45 -4.1 °C -13.4 °C 34097 hPa NW 20.9 km/h 20.9 km/h 34 % 0 mm
11:50 -3.6 °C -13 °C 34097 hPa WSW 11.9 km/h 11.9 km/h 34 % 0 mm
11:55 -3.6 °C -13.3 °C 34097 hPa WSW 15 km/h 15 km/h 33 % 0 mm
12:01 -3.7 °C -13.6 °C 34097 hPa ESE 11.9 km/h 11.9 km/h 32 % 0 mm
12:06 -3.6 °C -13.6 °C 34097 hPa WSW 27.2 km/h 27.2 km/h 32 % 0 mm
12:11 -3.6 °C -13.3 °C 34097 hPa WNW 4.2 km/h 6.3 km/h 33 % 0 mm
12:16 -3.6 °C -13.5 °C 34097 hPa NW 6 km/h 6.8 km/h 32 % 0 mm
12:21 -3.3 °C -13.3 °C 34097 hPa NW 14.5 km/h 14.5 km/h 32 % 0 mm
12:26 -3.1 °C -13.1 °C 34097 hPa SSW 15 km/h 15 km/h 32 % 0 mm
12:31 -3.1 °C -13.3 °C 34097 hPa WSW 20.9 km/h 20.9 km/h 31 % 0 mm
12:36 -3.3 °C -13.8 °C 34097 hPa SW 17.9 km/h 17.9 km/h 30 % 0 mm
12:41 -3 °C -13.6 °C 34097 hPa West 9 km/h 11.1 km/h 30 % 0 mm
12:46 -3 °C -13.8 °C 34063.2 hPa North 26.9 km/h 26.9 km/h 29 % 0 mm
12:51 -3 °C -13.6 °C 34063.2 hPa SW 19.2 km/h 19.2 km/h 30 % 0 mm
12:56 -2.9 °C -13.4 °C 34063.2 hPa WSW 18.3 km/h 18.3 km/h 30 % 0 mm
13:01 -2.9 °C -13.4 °C 34063.2 hPa ESE 15 km/h 15 km/h 30 % 0 mm
13:06 -2.9 °C -13.4 °C 34063.2 hPa West 16.1 km/h 16.1 km/h 30 % 0 mm
13:11 -2.8 °C -13.4 °C 34063.2 hPa West 10.3 km/h 10.3 km/h 30 % 0 mm
13:21 -2.3 °C -13 °C 34063.2 hPa NNE 14 km/h 14 km/h 30 % 0 mm
13:26 -2.4 °C -13.1 °C 34063.2 hPa WSW 11.9 km/h 11.9 km/h 30 % 0 mm
13:31 -2.2 °C -12.9 °C 34063.2 hPa WNW 11.9 km/h 11.9 km/h 30 % 0 mm
13:36 -2.2 °C -13.1 °C 34063.2 hPa South 15 km/h 15 km/h 29 % 0 mm
13:41 -2 °C -12.9 °C 34063.2 hPa West 15 km/h 15 km/h 29 % 0 mm
13:46 -2 °C -13.3 °C 34063.2 hPa WSW 32.8 km/h 32.8 km/h 28 % 0 mm
13:51 -2.2 °C -13.4 °C 34063.2 hPa SSW 11.9 km/h 11.9 km/h 28 % 0 mm
13:56 -1.8 °C -13.4 °C 34063.2 hPa WSW 22 km/h 22 km/h 27 % 0 mm
14:01 -1.9 °C -13.2 °C 34063.2 hPa WSW 15 km/h 15 km/h 28 % 0 mm
14:06 -1.8 °C -13.1 °C 34063.2 hPa WSW 24.3 km/h 24.3 km/h 28 % 0 mm
14:11 -1.7 °C -13.3 °C 34063.2 hPa West 9 km/h 9 km/h 27 % 0 mm
14:16 -1.8 °C -13.7 °C 34063.2 hPa WSW 20.9 km/h 20.9 km/h 26 % 0 mm
14:21 -2 °C -13.8 °C 34063.2 hPa SW 20.9 km/h 20.9 km/h 26 % 0 mm
14:26 -1.7 °C -13.7 °C 34063.2 hPa SW 15 km/h 15 km/h 26 % 0 mm
14:31 -1.7 °C -13.9 °C 34063.2 hPa WSW 15 km/h 15.6 km/h 25 % 0 mm
14:36 -1.8 °C -13.7 °C 34063.2 hPa WSW 20.9 km/h 20.9 km/h 26 % 0 mm
14:41 -1.7 °C -13.3 °C 34063.2 hPa SW 11.9 km/h 11.9 km/h 27 % 0 mm
14:46 -1.7 °C -13.7 °C 34029.3 hPa West 17.9 km/h 17.9 km/h 26 % 0 mm
14:51 -1.8 °C -13.7 °C 34029.3 hPa NNE 15 km/h 15 km/h 26 % 0 mm
14:56 -1.6 °C -13.8 °C 34029.3 hPa West 10.3 km/h 10.3 km/h 25 % 0 mm
15:01 -1.6 °C -13.8 °C 34029.3 hPa West 15 km/h 15 km/h 25 % 0 mm
15:06 -1.4 °C -13.7 °C 34029.3 hPa WSW 11.9 km/h 11.9 km/h 25 % 0 mm
15:11 -1.2 °C -13.5 °C 34029.3 hPa West 15 km/h 15 km/h 25 % 0 mm
15:16 -1.3 °C -13.6 °C 34029.3 hPa WNW 15 km/h 16.1 km/h 25 % 0 mm
15:21 -1.6 °C -14.1 °C 34029.3 hPa West 23.8 km/h 23.8 km/h 24 % 0 mm
15:26 -1.4 °C -13.7 °C 34029.3 hPa West 23.8 km/h 23.8 km/h 25 % 0 mm
15:31 -1.4 °C -14 °C 34029.3 hPa SW 11.9 km/h 11.9 km/h 24 % 0 mm
15:36 -1.3 °C -13.9 °C 34029.3 hPa West 20.9 km/h 20.9 km/h 24 % 0 mm
15:41 -1.4 °C -14 °C 34029.3 hPa West 24.3 km/h 24.3 km/h 24 % 0 mm
15:46 -1.6 °C -14.1 °C 33992.1 hPa WSW 22.5 km/h 22.5 km/h 24 % 0 mm
15:51 -1.4 °C -14.1 °C 33992.1 hPa SSW 15 km/h 15 km/h 24 % 0 mm
15:56 -1.5 °C -14.4 °C 33992.1 hPa SW 35.7 km/h 35.7 km/h 23 % 0 mm
16:01 -1.4 °C -14.1 °C 33992.1 hPa NNW 20.9 km/h 20.9 km/h 24 % 0 mm
16:06 -1.5 °C -14.1 °C 33992.1 hPa NW 15 km/h 15 km/h 24 % 0 mm
16:11 -1.4 °C -14 °C 33992.1 hPa NW 10.3 km/h 10.3 km/h 24 % 0 mm
16:16 -1.3 °C -14.3 °C 33958.2 hPa SW 20.9 km/h 25.1 km/h 23 % 0 mm
16:21 -1.4 °C -14.4 °C 33958.2 hPa West 20.9 km/h 20.9 km/h 23 % 0 mm
16:31 -1.7 °C -14.6 °C 33992.1 hPa WSW 47.6 km/h 47.6 km/h 23 % 0 mm
16:36 -1.7 °C -14.2 °C 33992.1 hPa NNE 15 km/h 15.6 km/h 24 % 0 mm
16:41 -1.6 °C -14.1 °C 33992.1 hPa WSW 26.9 km/h 26.9 km/h 24 % 0 mm
16:46 -1.7 °C -14.6 °C 33958.2 hPa WSW 20.9 km/h 20.9 km/h 23 % 0 mm
16:51 -1.7 °C -14.2 °C 33958.2 hPa WSW 19.6 km/h 19.6 km/h 24 % 0 mm
16:56 -1.6 °C -14.2 °C 33958.2 hPa WSW 26.9 km/h 26.9 km/h 24 % 0 mm
17:01 -1.7 °C -14.3 °C 33958.2 hPa WSW 20.9 km/h 20.9 km/h 24 % 0 mm
17:06 -1.8 °C -14.3 °C 33958.2 hPa West 26.9 km/h 26.9 km/h 24 % 0 mm
17:11 -1.8 °C -14.3 °C 33958.2 hPa WSW 26.9 km/h 26.9 km/h 24 % 0 mm
17:16 -1.7 °C -14.2 °C 33958.2 hPa WSW 31.4 km/h 31.4 km/h 24 % 0 mm
17:21 -1.9 °C -14.4 °C 33958.2 hPa WSW 23.8 km/h 23.8 km/h 24 % 0 mm
17:31 -1.9 °C -14.4 °C 33958.2 hPa WSW 26.9 km/h 26.9 km/h 24 % 0 mm
17:36 -1.9 °C -14.5 °C 33958.2 hPa WSW 25.1 km/h 25.1 km/h 24 % 0 mm
17:41 -2.1 °C -14.6 °C 33958.2 hPa SW 32.8 km/h 32.8 km/h 24 % 0 mm
17:46 -1.8 °C -14.4 °C 33958.2 hPa SW 15.6 km/h 16.1 km/h 24 % 0 mm
17:51 -1.9 °C -14.8 °C 33958.2 hPa WSW 23.8 km/h 23.8 km/h 23 % 0 mm
17:56 -1.8 °C -14.7 °C 33958.2 hPa West 16.6 km/h 16.6 km/h 23 % 0 mm
18:01 -1.9 °C -14.8 °C 33924.3 hPa West 26.9 km/h 26.9 km/h 23 % 0 mm
18:06 -1.8 °C -14.3 °C 33924.3 hPa SW 15 km/h 15 km/h 24 % 0 mm
18:11 -1.7 °C -14.6 °C 33924.3 hPa West 15 km/h 15 km/h 23 % 0 mm
18:16 -1.7 °C -14.6 °C 33958.2 hPa WSW 20.9 km/h 20.9 km/h 23 % 0 mm
18:26 -1.7 °C -14.6 °C 33958.2 hPa NNW 32.8 km/h 32.8 km/h 23 % 0 mm
18:31 -1.8 °C -14.7 °C 33958.2 hPa NW 15 km/h 15 km/h 23 % 0 mm
18:36 -1.7 °C -14.6 °C 33958.2 hPa West 15 km/h 15 km/h 23 % 0 mm
18:41 -1.8 °C -14.7 °C 33958.2 hPa SW 26.4 km/h 26.4 km/h 23 % 0 mm
18:46 -1.7 °C -14.6 °C 33890.5 hPa West 15 km/h 15 km/h 23 % 0 mm
18:51 -1.8 °C -14.7 °C 33890.5 hPa WSW 23.8 km/h 23.8 km/h 23 % 0 mm
18:56 -1.9 °C -15.1 °C 33890.5 hPa SE 17.9 km/h 17.9 km/h 22 % 0 mm
19:01 -1.8 °C -15.1 °C 33924.3 hPa West 20.9 km/h 22 km/h 22 % 0 mm
19:10 -6.3 °C -11.2 °C 33992.1 hPa East 7.7 km/h 20.8 km/h 57 % 0 mm
19:11 -1.9 °C -15.5 °C 33924.3 hPa SW 6 km/h 6.8 km/h 21 % 0 mm
19:16 -2 °C -15.2 °C 33924.3 hPa SW 15.6 km/h 15.6 km/h 22 % 0 mm
19:20 -6.4 °C -11.2 °C 33992.1 hPa ENE 7.7 km/h 20.8 km/h 58 % 0 mm
19:21 -2.1 °C -15.3 °C 33924.3 hPa WSW 15 km/h 15 km/h 22 % 0 mm
19:26 -2.2 °C -15.4 °C 33924.3 hPa WSW 9.8 km/h 10.3 km/h 22 % 0 mm
19:31 -2.3 °C -15.4 °C 33924.3 hPa WSW 20.9 km/h 20.9 km/h 22 % 0 mm
19:36 -2.4 °C -15.5 °C 33924.3 hPa SW 15.6 km/h 15.6 km/h 22 % 0 mm
19:41 -2.4 °C -15.5 °C 33924.3 hPa WSW 11.9 km/h 14.5 km/h 22 % 0 mm
19:45 -6.6 °C -10.9 °C 33992.1 hPa ENE 7.7 km/h 20.8 km/h 61 % 0 mm
19:46 -2.3 °C -15.4 °C 33924.3 hPa WSW 15 km/h 15 km/h 22 % 0 mm
19:51 -2.3 °C -15.1 °C 33924.3 hPa SSW 15 km/h 15 km/h 23 % 0 mm
19:55 -6.7 °C -10.7 °C 33992.1 hPa ENE 7.7 km/h 20.8 km/h 63 % 0 mm
19:56 -2.4 °C -15.2 °C 33924.3 hPa SW 17.9 km/h 17.9 km/h 23 % 0 mm
20:01 -2.4 °C -15.2 °C 33924.3 hPa SW 11.9 km/h 12.2 km/h 23 % 0 mm
20:06 -2.6 °C -15.3 °C 33924.3 hPa WSW 20.9 km/h 20.9 km/h 23 % 0 mm
20:11 -2.6 °C -15.4 °C 33924.3 hPa SSE 20.9 km/h 20.9 km/h 23 % 0 mm
20:16 -2.7 °C -15.1 °C 33924.3 hPa SSE 20.9 km/h 20.9 km/h 24 % 0 mm
20:21 -2.9 °C -14.7 °C 33924.3 hPa SSE 20.9 km/h 20.9 km/h 26 % 0 mm
20:25 -6.8 °C -10.7 °C 33992.1 hPa ENE 7.7 km/h 20.8 km/h 64 % 0 mm
20:26 -3.3 °C -14.1 °C 33924.3 hPa SSE 20.9 km/h 20.9 km/h 29 % 0 mm
20:30 -6.8 °C -10.7 °C 33958.2 hPa ENE 7.7 km/h 20.8 km/h 64 % 0 mm
20:31 -3.5 °C -14 °C 33924.3 hPa SSE 20.9 km/h 20.9 km/h 30 % 0 mm
20:35 -6.8 °C -10.7 °C 33958.2 hPa ENE 7.7 km/h 20.8 km/h 64 % 0 mm
20:36 -3.7 °C -13.6 °C 33924.3 hPa SSE 20.9 km/h 20.9 km/h 32 % 0 mm
20:41 -3.8 °C -13.4 °C 33924.3 hPa SSE 20.9 km/h 20.9 km/h 33 % 0 mm
20:45 -6.9 °C -10.7 °C 33992.1 hPa ENE 7.7 km/h 20.8 km/h 65 % 0 mm
20:46 -3.9 °C -13.1 °C 33924.3 hPa SSE 20.9 km/h 20.9 km/h 35 % 0 mm
20:50 -6.9 °C -10.7 °C 33992.1 hPa ENE 7.7 km/h 20.8 km/h 65 % 0 mm
20:51 -4 °C -12.9 °C 33924.3 hPa SSE 20.9 km/h 20.9 km/h 36 % 0 mm
20:55 -6.9 °C -10.7 °C 33992.1 hPa ENE 7.7 km/h 20.8 km/h 65 % 0 mm
20:56 -4.1 °C -13 °C 33924.3 hPa SSE 20.9 km/h 20.9 km/h 36 % 0 mm
21:01 -4.1 °C -13 °C 33924.3 hPa SSE 20.9 km/h 20.9 km/h 36 % 0 mm
21:05 -6.9 °C -10.6 °C 33992.1 hPa ENE 7.7 km/h 20.8 km/h 66 % 0 mm
21:11 -4.3 °C -13.2 °C 33924.3 hPa SSE 20.9 km/h 20.9 km/h 36 % 0 mm
21:15 -7 °C -10.6 °C 33992.1 hPa ENE 7.7 km/h 20.8 km/h 66 % 0 mm
21:16 -4.3 °C -13.2 °C 33924.3 hPa SSE 20.9 km/h 20.9 km/h 36 % 0 mm
21:21 -4.4 °C -13.1 °C 33924.3 hPa SSE 20.9 km/h 20.9 km/h 37 % 0 mm
21:25 -7.1 °C -10.6 °C 33992.1 hPa ENE 7.7 km/h 20.8 km/h 67 % 0 mm
21:26 -4.5 °C -13.2 °C 33924.3 hPa SSE 20.9 km/h 20.9 km/h 37 % 0 mm
21:31 -4.6 °C -13.2 °C 33958.2 hPa SSE 20.9 km/h 20.9 km/h 37 % 0 mm
21:35 -7.2 °C -10.6 °C 33992.1 hPa ENE 7.7 km/h 20.8 km/h 68 % 0 mm
21:36 -4.6 °C -13.2 °C 33958.2 hPa SSE 20.9 km/h 20.9 km/h 37 % 0 mm
21:41 -4.7 °C -13.3 °C 33958.2 hPa SSE 20.9 km/h 20.9 km/h 37 % 0 mm
21:45 -7.3 °C -10.5 °C 33992.1 hPa ENE 7.7 km/h 20.8 km/h 69 % 0 mm
21:46 -4.7 °C -13.2 °C 33958.2 hPa SSE 20.9 km/h 20.9 km/h 38 % 0 mm
21:51 -4.8 °C -13.2 °C 33958.2 hPa SSE 20.9 km/h 20.9 km/h 38 % 0 mm
21:55 -7.3 °C -10.4 °C 33992.1 hPa ENE 7.7 km/h 20.8 km/h 70 % 0 mm
21:56 -4.8 °C -13.2 °C 33958.2 hPa SSE 20.9 km/h 20.9 km/h 38 % 0 mm
22:01 -4.8 °C -13.2 °C 33958.2 hPa SSE 20.9 km/h 20.9 km/h 38 % 0 mm
22:05 -7.3 °C -10.4 °C 33992.1 hPa ENE 7.7 km/h 20.8 km/h 70 % 0 mm
22:06 -4.9 °C -13.1 °C 33958.2 hPa SSE 20.9 km/h 20.9 km/h 39 % 0 mm
22:11 -4.9 °C -12.9 °C 33958.2 hPa SSE 20.9 km/h 20.9 km/h 40 % 0 mm
22:15 -7.3 °C -10.3 °C 33958.2 hPa ENE 7.7 km/h 20.8 km/h 71 % 0 mm
22:16 -5 °C -12.7 °C 33958.2 hPa SSE 20.9 km/h 20.9 km/h 41 % 0 mm
22:21 -5.1 °C -12.7 °C 33958.2 hPa SSE 20.9 km/h 20.9 km/h 42 % 0 mm
22:25 -7.3 °C -10.3 °C 33958.2 hPa ENE 7.7 km/h 20.8 km/h 71 % 0 mm
22:26 -5.1 °C -12.4 °C 33958.2 hPa SSE 20.9 km/h 20.9 km/h 43 % 0 mm
22:31 -5.2 °C -12.3 °C 33958.2 hPa SSE 20.9 km/h 20.9 km/h 44 % 0 mm
22:36 -5.2 °C -12.4 °C 33958.2 hPa SSE 20.9 km/h 20.9 km/h 44 % 0 mm
22:41 -5.3 °C -12.3 °C 33958.2 hPa SSE 20.9 km/h 20.9 km/h 45 % 0 mm
22:45 -7.4 °C -10.2 °C 33958.2 hPa ENE 5.1 km/h 5.1 km/h 72 % 0 mm
22:46 -5.4 °C -12.2 °C 33992.1 hPa SSE 20.9 km/h 20.9 km/h 46 % 0 mm
22:51 -5.5 °C -12.1 °C 33992.1 hPa SSE 20.9 km/h 20.9 km/h 47 % 0 mm
22:55 -7.4 °C -10.3 °C 33958.2 hPa ENE 5.1 km/h 5.1 km/h 72 % 0 mm
22:56 -5.6 °C -12 °C 33992.1 hPa SSE 20.9 km/h 20.9 km/h 48 % 0 mm
23:01 -5.7 °C -11.9 °C 33992.1 hPa SSE 20.9 km/h 20.9 km/h 49 % 0 mm
23:05 -7.5 °C -10.4 °C 33958.2 hPa ENE 5.1 km/h 5.1 km/h 72 % 0 mm
23:06 -5.8 °C -12 °C 33992.1 hPa SSE 20.9 km/h 20.9 km/h 49 % 0 mm
23:11 -5.8 °C -12.1 °C 33992.1 hPa SSE 20.9 km/h 20.9 km/h 49 % 0 mm
23:15 -7.5 °C -10.4 °C 33958.2 hPa ENE 5.1 km/h 5.1 km/h 72 % 0 mm
23:16 -5.8 °C -11.9 °C 33992.1 hPa SSE 20.9 km/h 20.9 km/h 50 % 0 mm
23:22 -5.9 °C -11.9 °C 33992.1 hPa SSE 20.9 km/h 20.9 km/h 50 % 0 mm
23:25 -7.6 °C -10.3 °C 33958.2 hPa Calm   5.1 km/h 73 % 0 mm
23:26 -5.9 °C -12 °C 33992.1 hPa SSE 20.9 km/h 20.9 km/h 50 % 0 mm
23:31 -6 °C -11.8 °C 33992.1 hPa SSE 20.9 km/h 20.9 km/h 51 % 0 mm
23:36 -6.1 °C -11.9 °C 33992.1 hPa SSE 20.9 km/h 20.9 km/h 51 % 0 mm
23:41 -6.1 °C -11.8 °C 33992.1 hPa SSE 20.9 km/h 20.9 km/h 52 % 0 mm
23:45 -7.6 °C -10.3 °C 33958.2 hPa Calm   5.1 km/h 73 % 0 mm
23:46 -6.1 °C -11.6 °C 33992.1 hPa SSE 20.9 km/h 20.9 km/h 53 % 0 mm
23:52 -6.2 °C -11.4 °C 33992.1 hPa SSE 20.9 km/h 20.9 km/h 55 % 0 mm
23:55 -7.7 °C -10.4 °C 33958.2 hPa Calm   5.1 km/h 73 % 0 mm
23:57 -6.2 °C -11.3 °C 33992.1 hPa ENE 20.9 km/h 20.9 km/h 56 % 0 mm
Meteo Sesrovires
Elogis d' Weather Underground - 2 mb

Guio original per  Jim McMurry - jmcmurry@mwt.net Adaptat per a la plantilla per  Wim van der Kuil - Leuven-Template.eu

Trobareu la nostra informacio del temps tambe a:

Weather Underground

AWEKAS